createdAt,value
2023-02-27T00:00:00.978Z,88.55
2023-02-27T00:02:27.717Z,87.62
2023-02-27T00:04:54.747Z,87.56
2023-02-27T00:07:25.920Z,87.43
2023-02-27T00:09:53.258Z,87.92
2023-02-27T00:12:20.239Z,87.55
2023-02-27T00:14:47.057Z,88.52
2023-02-27T00:17:13.877Z,88.20
2023-02-27T00:19:40.541Z,88.53
2023-02-27T00:22:07.250Z,88.54
2023-02-27T00:24:33.996Z,89.14
2023-02-27T00:27:00.788Z,89.42
2023-02-27T00:29:27.464Z,89.08
2023-02-27T00:31:54.350Z,88.77
2023-02-27T00:34:21.257Z,89.31
2023-02-27T00:36:47.910Z,88.87
2023-02-27T00:39:15.923Z,88.99
2023-02-27T00:41:42.627Z,89.24
2023-02-27T00:44:09.366Z,89.65
2023-02-27T00:46:36.754Z,89.26
2023-02-27T00:49:04.092Z,89.52
2023-02-27T00:51:30.841Z,89.76
2023-02-27T00:53:57.723Z,89.30
2023-02-27T00:56:24.594Z,90.59
2023-02-27T00:58:51.301Z,89.69
2023-02-27T01:01:18.005Z,90.45
2023-02-27T01:03:44.852Z,89.91
2023-02-27T01:06:11.998Z,90.36
2023-02-27T01:08:38.791Z,90.26
2023-02-27T01:11:05.927Z,91.28
2023-02-27T01:13:32.700Z,91.39
2023-02-27T01:15:59.451Z,91.41
2023-02-27T01:18:26.185Z,91.81
2023-02-27T01:20:56.822Z,91.79
2023-02-27T01:23:23.638Z,92.12
2023-02-27T01:25:50.464Z,92.18
2023-02-27T01:28:17.187Z,91.99
2023-02-27T01:30:44.237Z,92.57
2023-02-27T01:33:14.539Z,93.16
2023-02-27T01:35:41.210Z,92.70
2023-02-27T01:38:07.954Z,92.89
2023-02-27T01:40:39.991Z,92.66
2023-02-27T01:43:14.361Z,92.84
2023-02-27T01:45:42.724Z,93.04
2023-02-27T01:48:26.830Z,93.54
2023-02-27T01:50:58.850Z,94.01
2023-02-27T01:53:28.816Z,93.32
2023-02-27T01:56:00.823Z,93.77
2023-02-27T01:58:27.767Z,93.45
2023-02-27T02:00:55.747Z,93.48
2023-02-27T02:03:28.867Z,94.29
2023-02-27T02:05:58.238Z,94.09
2023-02-27T02:08:29.123Z,93.43
2023-02-27T02:10:58.595Z,93.41
2023-02-27T02:13:25.837Z,93.02
2023-02-27T02:16:06.938Z,92.47
2023-02-27T02:18:53.711Z,92.63
2023-02-27T02:21:44.855Z,92.54
2023-02-27T02:25:01.335Z,92.15
2023-02-27T02:27:46.772Z,91.98
2023-02-27T02:30:24.180Z,92.02
2023-02-27T02:33:09.541Z,92.87
2023-02-27T02:36:04.133Z,92.97
2023-02-27T02:39:07.585Z,93.29
2023-02-27T02:41:58.655Z,93.64
2023-02-27T02:44:49.889Z,93.32
2023-02-27T02:47:21.049Z,92.99
2023-02-27T02:50:00.865Z,93.53
2023-02-27T02:52:54.947Z,93.90
2023-02-27T02:55:32.706Z,94.00
2023-02-27T02:58:11.405Z,93.71
2023-02-27T03:00:48.689Z,93.25
2023-02-27T03:03:24.268Z,93.29
2023-02-27T03:05:58.016Z,93.97
2023-02-27T03:08:34.273Z,94.11
2023-02-27T03:11:03.810Z,94.19
2023-02-27T03:13:36.644Z,94.14
2023-02-27T03:16:06.268Z,94.33
2023-02-27T03:18:40.796Z,94.08
2023-02-27T03:21:15.997Z,94.88
2023-02-27T03:23:45.048Z,95.03
2023-02-27T03:26:15.018Z,95.20
2023-02-27T03:28:55.901Z,94.94
2023-02-27T03:31:30.346Z,95.81
2023-02-27T03:34:04.657Z,96.46
2023-02-27T03:36:59.352Z,96.50
2023-02-27T03:39:38.141Z,96.47
2023-02-27T03:42:16.548Z,96.82
2023-02-27T03:45:33.886Z,96.36
2023-02-27T03:48:02.535Z,97.27
2023-02-27T03:50:29.807Z,97.41
2023-02-27T03:52:57.416Z,97.27
2023-02-27T03:55:34.959Z,97.93
2023-02-27T03:58:02.142Z,97.89
2023-02-27T04:00:29.589Z,97.80
2023-02-27T04:02:59.314Z,97.75
2023-02-27T04:05:28.642Z,98.42
2023-02-27T04:08:26.137Z,98.07
2023-02-27T04:11:04.688Z,98.30
2023-02-27T04:13:37.108Z,98.09
2023-02-27T04:16:34.898Z,97.80
2023-02-27T04:19:17.028Z,97.66
2023-02-27T04:22:15.598Z,98.20
2023-02-27T04:24:48.202Z,98.00
2023-02-27T04:27:23.130Z,97.70
2023-02-27T04:30:08.430Z,98.21
2023-02-27T04:32:41.331Z,99.02
2023-02-27T04:35:26.277Z,98.88
2023-02-27T04:38:00.107Z,99.02
2023-02-27T04:40:39.029Z,99.53
2023-02-27T04:43:09.771Z,99.07
2023-02-27T04:45:41.365Z,99.87
2023-02-27T04:48:26.265Z,100.00
2023-02-27T04:51:16.620Z,100.00
2023-02-27T04:54:00.696Z,100.00
2023-02-27T04:56:34.929Z,99.45
2023-02-27T04:59:19.446Z,99.25
2023-02-27T05:02:02.117Z,99.48
2023-02-27T05:04:33.011Z,99.36
2023-02-27T05:07:02.123Z,99.32
2023-02-27T05:09:38.563Z,98.76
2023-02-27T05:12:37.460Z,98.68
2023-02-27T05:15:40.117Z,98.62
2023-02-27T05:18:10.356Z,98.85
2023-02-27T05:20:49.205Z,99.25
2023-02-27T05:23:24.375Z,99.47
2023-02-27T05:26:16.950Z,99.34
2023-02-27T05:28:55.415Z,100.00
2023-02-27T05:31:51.688Z,100.00
2023-02-27T05:34:35.388Z,100.00
2023-02-27T05:37:15.023Z,100.00
2023-02-27T05:39:45.127Z,100.00
2023-02-27T05:42:18.313Z,100.00
2023-02-27T05:44:53.022Z,100.00
2023-02-27T05:47:23.641Z,100.00
2023-02-27T05:49:56.514Z,100.00
2023-02-27T05:52:25.147Z,100.00
2023-02-27T05:55:03.933Z,100.00
2023-02-27T05:57:44.138Z,100.00
2023-02-27T06:00:34.912Z,100.00
2023-02-27T06:03:01.642Z,100.00
2023-02-27T06:05:29.315Z,100.00
2023-02-27T06:07:56.054Z,100.00
2023-02-27T06:10:23.664Z,100.00
2023-02-27T06:12:50.422Z,100.00
2023-02-27T06:15:18.752Z,100.00
2023-02-27T06:17:45.605Z,99.79
2023-02-27T06:20:13.048Z,100.00
2023-02-27T06:22:39.823Z,100.00
2023-02-27T06:25:06.915Z,99.93
2023-02-27T06:27:33.590Z,100.00
2023-02-27T06:30:00.411Z,100.00
2023-02-27T06:32:28.023Z,100.00
2023-02-27T06:34:55.001Z,100.00
2023-02-27T06:37:22.610Z,100.00
2023-02-27T06:39:49.333Z,100.00
2023-02-27T06:42:16.408Z,100.00
2023-02-27T06:44:43.097Z,100.00
2023-02-27T06:47:09.879Z,100.00
2023-02-27T06:49:36.686Z,100.00
2023-02-27T06:52:03.450Z,100.00
2023-02-27T06:54:30.177Z,99.68
2023-02-27T06:56:56.977Z,99.33
2023-02-27T06:59:23.689Z,99.79
2023-02-27T07:01:50.389Z,100.00
2023-02-27T07:04:17.579Z,100.00
2023-02-27T07:07:34.942Z,100.00
2023-02-27T07:09:31.505Z,100.00
2023-02-27T07:11:58.192Z,100.00
2023-02-27T07:14:25.928Z,100.00
2023-02-27T07:16:55.526Z,100.00
2023-02-27T07:19:23.408Z,100.00
2023-02-27T07:21:50.795Z,100.00
2023-02-27T07:24:17.723Z,100.00
2023-02-27T07:26:44.451Z,100.00
2023-02-27T07:29:11.353Z,100.00
2023-02-27T07:31:38.263Z,100.00
2023-02-27T07:34:05.029Z,100.00
2023-02-27T07:36:31.744Z,100.00
2023-02-27T07:38:58.796Z,100.00
2023-02-27T07:41:30.799Z,100.00
2023-02-27T07:44:00.397Z,100.00
2023-02-27T07:46:27.958Z,100.00
2023-02-27T07:48:55.156Z,100.00
2023-02-27T07:51:21.988Z,100.00
2023-02-27T07:53:48.737Z,99.97
2023-02-27T07:56:15.733Z,99.40
2023-02-27T07:58:42.541Z,98.85
2023-02-27T08:01:09.300Z,98.67
2023-02-27T08:03:36.148Z,98.44
2023-02-27T08:06:02.931Z,98.34
2023-02-27T08:08:29.846Z,96.77
2023-02-27T08:10:56.826Z,96.83
2023-02-27T08:13:42.292Z,96.87
2023-02-27T08:16:09.529Z,96.98
2023-02-27T08:18:36.338Z,96.86
2023-02-27T08:21:05.120Z,95.81
2023-02-27T08:23:34.565Z,95.43
2023-02-27T08:26:02.536Z,94.72
2023-02-27T08:28:29.507Z,95.39
2023-02-27T08:30:56.578Z,94.02
2023-02-27T08:33:24.542Z,93.83
2023-02-27T08:35:51.247Z,93.19
2023-02-27T08:38:17.975Z,91.91
2023-02-27T08:40:44.692Z,90.25
2023-02-27T08:43:11.391Z,90.75
2023-02-27T08:45:38.143Z,90.60
2023-02-27T08:48:05.196Z,91.54
2023-02-27T08:50:31.953Z,90.39
2023-02-27T08:52:58.674Z,92.32
2023-02-27T08:55:25.494Z,89.98
2023-02-27T08:57:52.224Z,91.74
2023-02-27T09:00:19.456Z,90.80
2023-02-27T09:02:46.270Z,88.64
2023-02-27T09:05:13.650Z,87.75
2023-02-27T09:07:40.511Z,88.22
2023-02-27T09:10:07.570Z,86.82
2023-02-27T09:12:34.346Z,85.00
2023-02-27T09:15:01.183Z,84.60
2023-02-27T09:17:27.892Z,85.83
2023-02-27T09:19:57.069Z,85.62
2023-02-27T09:22:24.747Z,85.26
2023-02-27T09:24:51.632Z,84.51
2023-02-27T09:27:18.359Z,83.71
2023-02-27T09:29:45.070Z,84.87
2023-02-27T09:32:12.526Z,83.73
2023-02-27T09:34:39.371Z,82.17
2023-02-27T09:37:06.094Z,83.22
2023-02-27T09:39:32.806Z,83.11
2023-02-27T09:42:19.476Z,82.11
2023-02-27T09:44:49.574Z,80.54
2023-02-27T09:47:26.890Z,79.98
2023-02-27T09:50:04.316Z,80.39
2023-02-27T09:52:35.323Z,83.48
2023-02-27T09:55:03.184Z,81.62
2023-02-27T09:57:51.990Z,81.93
2023-02-27T10:00:50.855Z,77.99
2023-02-27T10:03:55.438Z,79.46
2023-02-27T10:06:30.923Z,78.84
2023-02-27T10:09:37.477Z,82.98
2023-02-27T10:12:25.205Z,83.55
2023-02-27T10:15:05.934Z,79.42
2023-02-27T10:17:38.894Z,76.39
2023-02-27T10:20:17.046Z,75.61
2023-02-27T10:22:47.350Z,77.24
2023-02-27T10:25:30.873Z,73.50
2023-02-27T10:28:11.381Z,73.49
2023-02-27T10:30:38.587Z,73.81
2023-02-27T10:33:15.208Z,73.43
2023-02-27T10:35:44.825Z,72.72
2023-02-27T10:38:31.629Z,72.83
2023-02-27T10:41:00.417Z,71.93
2023-02-27T10:43:27.175Z,71.74
2023-02-27T10:45:54.563Z,72.40
2023-02-27T10:48:23.112Z,71.51
2023-02-27T10:50:53.965Z,71.79
2023-02-27T10:53:27.155Z,71.54
2023-02-27T10:56:07.095Z,70.84
2023-02-27T10:58:38.186Z,70.46
2023-02-27T11:01:07.816Z,70.77
2023-02-27T11:03:37.675Z,70.57
2023-02-27T11:06:26.659Z,68.82
2023-02-27T11:09:17.700Z,71.52
2023-02-27T11:11:44.680Z,67.37
2023-02-27T11:14:31.541Z,64.79
2023-02-27T11:17:03.329Z,66.10
2023-02-27T11:19:34.168Z,64.70
2023-02-27T11:22:06.759Z,67.18
2023-02-27T11:24:34.459Z,63.02
2023-02-27T11:27:22.078Z,62.20
2023-02-27T11:30:22.710Z,61.80
2023-02-27T11:32:51.487Z,61.56
2023-02-27T11:35:29.687Z,61.78
2023-02-27T11:37:59.937Z,62.59
2023-02-27T11:40:41.030Z,63.24
2023-02-27T11:43:16.901Z,60.04
2023-02-27T11:46:29.144Z,58.91
2023-02-27T11:49:11.874Z,59.36
2023-02-27T11:52:02.481Z,59.15
2023-02-27T11:54:42.897Z,58.37
2023-02-27T11:57:33.834Z,57.96
2023-02-27T12:00:19.829Z,56.52
2023-02-27T12:03:22.081Z,56.62
2023-02-27T12:05:56.063Z,56.35
2023-02-27T12:08:54.011Z,57.27
2023-02-27T12:11:30.160Z,57.17
2023-02-27T12:14:23.386Z,56.20
2023-02-27T12:16:59.219Z,58.06
2023-02-27T12:19:56.265Z,56.63
2023-02-27T12:22:29.100Z,56.50
2023-02-27T12:25:20.997Z,57.27
2023-02-27T12:28:03.151Z,56.97
2023-02-27T12:30:39.141Z,57.47
2023-02-27T12:33:42.095Z,56.35
2023-02-27T12:36:14.094Z,57.10
2023-02-27T12:38:42.045Z,56.30
2023-02-27T12:41:23.446Z,55.89
2023-02-27T12:43:56.152Z,55.35
2023-02-27T12:46:50.724Z,55.85
2023-02-27T12:50:00.553Z,55.54
2023-02-27T12:52:44.361Z,54.81
2023-02-27T12:55:17.905Z,54.46
2023-02-27T12:58:31.374Z,54.87
2023-02-27T13:01:01.778Z,54.72
2023-02-27T13:03:51.589Z,55.00
2023-02-27T13:06:33.149Z,55.58
2023-02-27T13:09:15.687Z,55.33
2023-02-27T13:11:54.287Z,56.12
2023-02-27T13:14:30.346Z,56.06
2023-02-27T13:17:02.403Z,56.33
2023-02-27T13:19:53.165Z,56.79
2023-02-27T13:22:29.117Z,55.89
2023-02-27T13:25:00.145Z,55.34
2023-02-27T13:27:33.780Z,56.48
2023-02-27T13:30:03.249Z,57.00
2023-02-27T13:32:44.942Z,55.81
2023-02-27T13:35:24.153Z,56.16
2023-02-27T13:37:51.078Z,54.61
2023-02-27T13:40:47.224Z,55.24
2023-02-27T13:43:40.553Z,53.57
2023-02-27T13:46:28.479Z,54.97
2023-02-27T13:49:20.092Z,53.67
2023-02-27T13:52:00.426Z,53.19
2023-02-27T13:54:39.776Z,53.81
2023-02-27T13:57:17.987Z,54.05
2023-02-27T13:59:53.564Z,53.78
2023-02-27T14:02:46.591Z,54.84
2023-02-27T14:05:31.095Z,53.16
2023-02-27T14:08:09.075Z,53.18
2023-02-27T14:10:39.201Z,54.15
2023-02-27T14:13:26.821Z,54.56
2023-02-27T14:15:57.019Z,52.81
2023-02-27T14:18:50.130Z,53.17
2023-02-27T14:21:51.690Z,52.60
2023-02-27T14:24:28.380Z,52.17
2023-02-27T14:26:56.517Z,51.51
2023-02-27T14:29:31.253Z,52.31
2023-02-27T14:32:04.888Z,51.79
2023-02-27T14:34:31.927Z,52.69
2023-02-27T14:37:02.468Z,52.96
2023-02-27T14:39:38.692Z,51.88
2023-02-27T14:42:30.802Z,52.45
2023-02-27T14:44:57.820Z,53.30
2023-02-27T14:47:24.477Z,54.03
2023-02-27T14:49:51.267Z,52.48
2023-02-27T14:52:22.431Z,53.15
2023-02-27T14:54:50.275Z,52.82
2023-02-27T14:57:27.126Z,52.95
2023-02-27T14:59:54.788Z,51.74
2023-02-27T15:02:26.091Z,53.07
2023-02-27T15:05:20.876Z,53.20
2023-02-27T15:07:48.157Z,54.16
2023-02-27T15:10:25.888Z,54.22
2023-02-27T15:12:52.846Z,53.42
2023-02-27T15:15:21.268Z,53.37
2023-02-27T15:17:52.887Z,52.88
2023-02-27T15:20:31.933Z,51.92
2023-02-27T15:23:21.944Z,52.39
2023-02-27T15:25:48.720Z,53.40
2023-02-27T15:28:27.875Z,53.75
2023-02-27T15:30:56.544Z,54.26
2023-02-27T15:33:33.524Z,54.49
2023-02-27T15:36:01.589Z,55.23
2023-02-27T15:38:33.633Z,54.57
2023-02-27T15:41:02.587Z,54.96
2023-02-27T15:43:30.550Z,54.04
2023-02-27T15:45:58.373Z,53.83
2023-02-27T15:48:25.766Z,51.56
2023-02-27T15:50:57.018Z,50.93
2023-02-27T15:53:29.792Z,49.95
2023-02-27T15:55:59.842Z,49.10
2023-02-27T15:58:29.930Z,49.05
2023-02-27T16:01:11.479Z,49.64
2023-02-27T16:03:43.996Z,51.57
2023-02-27T16:06:23.495Z,52.43
2023-02-27T16:08:59.271Z,53.86
2023-02-27T16:11:31.891Z,55.09
2023-02-27T16:13:59.429Z,55.23
2023-02-27T16:16:28.519Z,56.26
2023-02-27T16:19:00.147Z,56.27
2023-02-27T16:21:31.137Z,55.96
2023-02-27T16:24:19.179Z,56.02
2023-02-27T16:26:51.374Z,55.64
2023-02-27T16:29:21.357Z,56.52
2023-02-27T16:31:51.573Z,56.87
2023-02-27T16:34:44.980Z,56.68
2023-02-27T16:37:21.929Z,56.28
2023-02-27T16:39:54.496Z,56.92
2023-02-27T16:42:21.846Z,56.82
2023-02-27T16:44:48.667Z,56.17
2023-02-27T16:47:15.718Z,56.84
2023-02-27T16:49:44.447Z,56.82
2023-02-27T16:52:12.062Z,57.13
2023-02-27T16:54:38.753Z,57.85
2023-02-27T16:57:05.510Z,57.57
2023-02-27T16:59:36.107Z,57.51
2023-02-27T17:02:07.221Z,58.94
2023-02-27T17:04:34.017Z,58.13
2023-02-27T17:07:06.399Z,58.25
2023-02-27T17:09:33.692Z,59.27
2023-02-27T17:12:00.389Z,59.67
2023-02-27T17:14:27.111Z,60.49
2023-02-27T17:16:53.925Z,60.60
2023-02-27T17:19:22.285Z,60.07
2023-02-27T17:21:50.544Z,60.49
2023-02-27T17:24:17.683Z,60.67
2023-02-27T17:26:44.435Z,61.39
2023-02-27T17:29:12.172Z,61.56
2023-02-27T17:31:38.964Z,62.13
2023-02-27T17:34:05.751Z,62.12
2023-02-27T17:36:32.742Z,63.60
2023-02-27T17:39:02.798Z,64.03
2023-02-27T17:41:31.639Z,64.23
2023-02-27T17:43:59.589Z,63.82
2023-02-27T17:46:28.562Z,64.57
2023-02-27T17:49:00.048Z,65.33
2023-02-27T17:51:28.869Z,65.57
2023-02-27T17:53:56.005Z,65.59
2023-02-27T17:56:23.125Z,66.19
2023-02-27T17:58:50.362Z,66.14
2023-02-27T18:01:22.996Z,65.86
2023-02-27T18:03:50.415Z,65.43
2023-02-27T18:06:18.409Z,65.04
2023-02-27T18:08:45.747Z,65.36
2023-02-27T18:11:15.383Z,66.44
2023-02-27T18:13:42.471Z,66.40
2023-02-27T18:16:10.865Z,66.37
2023-02-27T18:18:40.277Z,66.28
2023-02-27T18:21:10.155Z,66.46
2023-02-27T18:23:37.444Z,67.09
2023-02-27T18:26:04.727Z,67.70
2023-02-27T18:28:31.548Z,67.46
2023-02-27T18:30:58.719Z,67.58
2023-02-27T18:33:25.650Z,67.96
2023-02-27T18:35:52.436Z,67.20
2023-02-27T18:38:19.373Z,68.31
2023-02-27T18:40:46.251Z,68.70
2023-02-27T18:43:13.991Z,69.84
2023-02-27T18:45:41.338Z,70.71
2023-02-27T18:48:08.302Z,72.09
2023-02-27T18:50:35.290Z,72.24
2023-02-27T18:53:02.219Z,72.69
2023-02-27T18:55:28.806Z,72.94
2023-02-27T18:57:55.523Z,72.92
2023-02-27T19:00:24.316Z,73.83
2023-02-27T19:02:51.174Z,74.71
2023-02-27T19:05:18.172Z,75.01
2023-02-27T19:07:44.793Z,75.39
2023-02-27T19:10:12.399Z,75.49
2023-02-27T19:12:39.117Z,75.79
2023-02-27T19:15:06.192Z,77.04
2023-02-27T19:17:33.694Z,76.73
2023-02-27T19:20:00.476Z,77.00
2023-02-27T19:22:29.487Z,77.78
2023-02-27T19:24:57.051Z,78.50
2023-02-27T19:27:23.816Z,78.51
2023-02-27T19:29:50.974Z,78.30
2023-02-27T19:32:18.192Z,79.08
2023-02-27T19:34:45.878Z,79.92
2023-02-27T19:37:12.657Z,79.19
2023-02-27T19:39:39.340Z,77.03
2023-02-27T19:42:05.979Z,77.69
2023-02-27T19:44:32.845Z,77.18
2023-02-27T19:47:00.261Z,77.68
2023-02-27T19:49:27.067Z,78.04
2023-02-27T19:51:53.761Z,77.67
2023-02-27T19:54:20.419Z,78.24
2023-02-27T19:56:47.131Z,78.41
2023-02-27T19:59:13.884Z,78.56
2023-02-27T20:01:41.435Z,78.97
2023-02-27T20:04:08.664Z,80.15
2023-02-27T20:06:41.893Z,80.40
2023-02-27T20:09:11.515Z,81.58
2023-02-27T20:11:38.265Z,80.84
2023-02-27T20:14:05.200Z,81.17
2023-02-27T20:16:35.692Z,82.02
2023-02-27T20:19:07.468Z,82.14
2023-02-27T20:21:34.254Z,82.70
2023-02-27T20:24:01.597Z,83.68
2023-02-27T20:26:40.100Z,83.73
2023-02-27T20:29:27.089Z,83.76
2023-02-27T20:31:55.457Z,84.21
2023-02-27T20:34:26.238Z,83.62
2023-02-27T20:36:54.963Z,84.14
2023-02-27T20:39:21.851Z,84.92
2023-02-27T20:41:49.374Z,85.05
2023-02-27T20:44:16.388Z,85.21
2023-02-27T20:46:44.057Z,85.47
2023-02-27T20:49:14.365Z,85.53
2023-02-27T20:51:41.178Z,85.93
2023-02-27T20:54:11.739Z,85.81
2023-02-27T20:56:41.270Z,85.16
2023-02-27T20:59:11.901Z,85.32
2023-02-27T21:01:38.908Z,85.52
2023-02-27T21:04:06.049Z,85.11
2023-02-27T21:06:33.259Z,83.96
2023-02-27T21:09:04.184Z,83.78
2023-02-27T21:11:32.268Z,83.74
2023-02-27T21:14:03.831Z,83.44
2023-02-27T21:16:30.641Z,83.38
2023-02-27T21:18:57.771Z,83.12
2023-02-27T21:21:28.090Z,83.00
2023-02-27T21:23:55.343Z,83.30
2023-02-27T21:26:25.507Z,82.89
2023-02-27T21:28:54.434Z,83.05
2023-02-27T21:31:23.227Z,81.38
2023-02-27T21:33:51.165Z,80.54
2023-02-27T21:36:18.433Z,80.55
2023-02-27T21:38:46.066Z,80.47
2023-02-27T21:41:13.438Z,80.66
2023-02-27T21:43:40.683Z,80.65
2023-02-27T21:46:09.764Z,80.77
2023-02-27T21:48:36.693Z,81.05
2023-02-27T21:51:04.706Z,81.78
2023-02-27T21:53:31.882Z,82.85
2023-02-27T21:56:09.908Z,83.07
2023-02-27T21:58:37.324Z,83.87
2023-02-27T22:01:18.162Z,84.31
2023-02-27T22:03:47.436Z,84.88
2023-02-27T22:06:15.478Z,85.20
2023-02-27T22:08:43.040Z,85.01
2023-02-27T22:11:10.626Z,85.66
2023-02-27T22:13:37.814Z,86.06
2023-02-27T22:16:11.994Z,86.24
2023-02-27T22:18:40.686Z,86.06
2023-02-27T22:21:10.761Z,86.50
2023-02-27T22:23:38.318Z,86.59
2023-02-27T22:26:08.023Z,86.74
2023-02-27T22:28:35.617Z,87.00
2023-02-27T22:31:16.005Z,88.58
2023-02-27T22:33:44.434Z,89.25
2023-02-27T22:36:20.281Z,88.80
2023-02-27T22:38:48.299Z,88.61
2023-02-27T22:41:18.149Z,89.00
2023-02-27T22:43:45.720Z,89.81
2023-02-27T22:46:16.548Z,89.91
2023-02-27T22:48:43.677Z,90.20
2023-02-27T22:51:14.627Z,90.72
2023-02-27T22:53:43.515Z,91.26
2023-02-27T22:56:13.177Z,91.25
2023-02-27T22:58:41.784Z,91.45
2023-02-27T23:01:22.823Z,91.98
2023-02-27T23:03:51.994Z,91.93
2023-02-27T23:06:21.926Z,92.15
2023-02-27T23:08:49.104Z,92.55
2023-02-27T23:11:17.506Z,92.79
2023-02-27T23:13:44.677Z,93.25
2023-02-27T23:16:13.534Z,93.61
2023-02-27T23:18:42.197Z,92.74
2023-02-27T23:21:10.123Z,92.98
2023-02-27T23:23:37.097Z,93.08
2023-02-27T23:26:05.806Z,93.06
2023-02-27T23:28:35.213Z,93.56
2023-02-27T23:31:02.466Z,93.49
2023-02-27T23:33:30.031Z,93.37
2023-02-27T23:36:00.949Z,93.22
2023-02-27T23:38:28.524Z,93.42
2023-02-27T23:40:55.556Z,93.66
2023-02-27T23:43:22.815Z,93.45
2023-02-27T23:45:49.678Z,93.45
2023-02-27T23:48:16.631Z,94.11
2023-02-27T23:50:44.732Z,94.15
2023-02-27T23:53:13.616Z,94.06
2023-02-27T23:55:41.454Z,93.92
2023-02-27T23:58:10.383Z,94.11
